[2025-02-19 00:00:00, 2025-02-19 23:59:59] previous next
| time | temperature | air pressure | humidity | solar radiation | wind speed |
|---|---|---|---|---|---|
| 2025-02-19 08:37:51 | -0.2 | 1012.4 | 75.0 | 0.0 | 0.0 |
| 2025-02-19 09:00:03 | 0.2 | 1012.4 | 73.0 | 56.6 | 3.4 |
| 2025-02-19 09:20:04 | 1.0 | 1012.4 | 71.0 | 65.1 | 2.4 |
| 2025-02-19 09:40:06 | 1.3 | 1012.4 | 69.0 | 72.8 | 2.2 |
| 2025-02-19 10:00:05 | 1.9 | 1012.4 | 67.0 | 86.5 | 1.3 |
| 2025-02-19 10:20:06 | 2.6 | 1012.0 | 65.0 | 94.2 | 1.8 |
| 2025-02-19 10:40:05 | 3.2 | 1012.4 | 64.0 | 103.8 | 1.0 |
| 2025-02-19 11:00:06 | 3.8 | 1012.4 | 60.0 | 118.5 | 0.6 |
| 2025-02-19 11:20:04 | 4.2 | 1012.4 | 58.0 | 132.3 | 1.1 |
| 2025-02-19 11:40:03 | 5.4 | 1012.4 | 57.0 | 182.8 | 1.1 |
| 2025-02-19 12:00:06 | 5.8 | 1012.0 | 56.0 | 205.6 | 0.4 |
| 2025-02-19 12:20:04 | 6.1 | 1011.7 | 54.0 | 223.3 | 2.4 |
| 2025-02-19 12:40:04 | 6.3 | 1011.7 | 57.0 | 243.1 | 1.4 |
| 2025-02-19 13:00:04 | 7.2 | 1011.7 | 53.0 | 252.6 | 2.4 |
| 2025-02-19 13:20:03 | 6.6 | 1011.7 | 55.0 | 197.3 | 1.7 |
| 2025-02-19 13:40:05 | 6.9 | 1011.7 | 54.0 | 192.2 | 2.2 |
| 2025-02-19 14:00:05 | 6.9 | 1011.7 | 54.0 | 225.6 | 0.6 |
| 2025-02-19 14:20:05 | 6.6 | 1011.7 | 56.0 | 103.0 | 1.3 |
| 2025-02-19 14:40:04 | 6.4 | 1011.7 | 57.0 | 70.5 | 1.7 |
| 2025-02-19 15:03:08 | 6.5 | 1011.4 | 57.0 | 0.0 | 0.0 |
| 2025-02-19 15:30:24 | 6.5 | 1011.4 | 57.0 | 0.0 | 0.0 |
CSV export: /station/IWELLEN5/data?period=20250219T000000/20250219T235959&format=csv&tz=GMT